Pride Of Kent — MQCJ2 — position and weather

sailwx.info

Track history (hours):
 
Tides and Currents Weather Stations Pressure Air Temp Water Temp Dewpoint Dewpoint Depression Visibility Wind Speed Wind Dir Waves Ship Positions

Pride Of Kent

Operator: P & O Ferries

Last reported at 2016-Jul-26 01:33 UTC. Time now 2016-Jul-26 02:36 UTC.
Position N 50°58' E 001°51'.

Length 180 m; draft 6 m.

Type: Passenger vessel. MMSI: 232009000.

Date/timePositionNaut miles runAvg speedWind from/ knotsBaromVisibWave heightAir tempDewpointWater temp
2016-Jul-26 01:33N 50°58' E 001°51'1313.1
2016-Jul-26 00:33N 51°01' E 001°31'9 9.1
2016-Jul-25 23:33N 51°07' E 001°20'6 6.3
2016-Jul-25 22:34N 51°05' E 001°29'1515.3
2016-Jul-25 21:33N 50°58' E 001°51'1 0.8
2016-Jul-25 20:34N 50°58' E 001°50'1616.5
2016-Jul-25 19:34N 51°04' E 001°26'5 4.4
2016-Jul-25 18:33N 51°07' E 001°20'1616.5
2016-Jul-25 17:33N 50°59' E 001°42'6 5.6
2016-Jul-25 16:33N 50°58' E 001°51'1313.1
2016-Jul-25 15:34N 51°03' E 001°32'9 7.8
2016-Jul-25 14:28N 51°07' E 001°20'7 7.2
2016-Jul-25 13:34N 51°05' E 001°30'1515.0
2016-Jul-25 12:33N 50°58' E 001°51'2 1.5
2016-Jul-25 11:33N 50°58' E 001°49'1817.9
2016-Jul-25 10:34N 51°06' E 001°23'2 2.1
2016-Jul-25 09:30N 51°07' E 001°20'1112.1
2016-Jul-25 08:33N 51°03' E 001°37'1010.1
2016-Jul-25 07:33N 50°58' E 001°51'7 6.6
2016-Jul-25 06:33N 50°58' E 001°41'16 7.3
2016-Jul-25 04:23N 51°07' E 001°20'1012.0
2016-Jul-25 03:34N 51°04' E 001°35'1210.9
2016-Jul-25 02:29N 50°58' E 001°51'0 0.0
2016-Jul-25 01:33N 50°58' E 001°51'1111.3
2016-Jul-25 00:33N 50°60' E 001°33'6 2.9
2016-Jul-24 22:33N 51°05' E 001°29'1615.7
2016-Jul-24 21:34N 50°58' E 001°51'2 2.0
2016-Jul-24 20:33N 50°58' E 001°48'1717.3
2016-Jul-24 19:33N 51°06' E 001°23'2 2.4
2016-Jul-24 18:33N 51°07' E 001°20'1717.3
2016-Jul-24 17:33N 50°59' E 001°44'5 4.6
2016-Jul-24 16:33N 50°58' E 001°51'1413.8
2016-Jul-24 15:33N 51°03' E 001°30'8 7.2
2016-Jul-24 14:28N 51°07' E 001°20'9 9.5
2016-Jul-24 13:34N 51°03' E 001°32'1312.8
2016-Jul-24 12:32N 50°58' E 001°51'2 2.0
2016-Jul-24 11:34N 50°58' E 001°48'1717.5
2016-Jul-24 10:33N 51°06' E 001°23'2 2.0
2016-Jul-24 09:28N 51°07' E 001°20'1516.3
2016-Jul-24 08:33N 50°59' E 001°40'7 7.1
2016-Jul-24 07:32N 50°58' E 001°51'1212.5
2016-Jul-24 06:33N 51°01' E 001°32'10 4.9
2016-Jul-24 04:32N 51°07' E 001°20'8 8.7
2016-Jul-24 03:33N 51°05' E 001°33'1313.2
2016-Jul-24 02:33N 50°58' E 001°51'2 1.9
2016-Jul-24 01:33N 50°58' E 001°48'1919.3
2016-Jul-24 00:33N 51°07' E 001°21'0 0.3
2016-Jul-23 23:34N 51°07' E 001°20'1918.5
2016-Jul-23 22:34N 50°58' E 001°46'3 3.3
2016-Jul-23 21:33N 50°58' E 001°51'1111.3
2016-Jul-23 20:33N 51°01' E 001°34'1110.1
2016-Jul-23 19:31N 51°07' E 001°20'7 7.5
2016-Jul-23 18:34N 51°05' E 001°31'1414.4
2016-Jul-23 17:33N 50°58' E 001°51'2 2.2
2016-Jul-23 16:33N 50°58' E 001°47'1918.5
2016-Jul-23 15:31N 51°07' E 001°20'0 0.1
2016-Jul-23 14:27N 51°07' E 001°20'1416.1
2016-Jul-23 13:33N 51°00' E 001°40'7 7.1
2016-Jul-23 12:33N 50°58' E 001°51'5 5.2
2016-Jul-23 11:33N 50°58' E 001°43'1714.7
2016-Jul-23 10:24N 51°07' E 001°20'0 0.0
2016-Jul-23 09:31N 51°07' E 001°20'1616.1
2016-Jul-23 08:33N 50°60' E 001°42'6 6.0
2016-Jul-23 07:32N 50°58' E 001°51'1010.4
2016-Jul-23 06:34N 50°60' E 001°35'8 3.8
2016-Jul-23 04:34N 51°06' E 001°29'1616.0
2016-Jul-23 03:33N 50°58' E 001°51'5 4.6
2016-Jul-23 02:34N 50°58' E 001°44'1817.7
2016-Jul-23 01:33N 51°07' E 001°20'0 0.0
2016-Jul-23 00:30N 51°07' E 001°20'1414.7
2016-Jul-22 23:33N 51°02' E 001°40'8 7.6
2016-Jul-22 22:34N 50°58' E 001°51'7 7.2
2016-Jul-22 21:34N 50°59' E 001°40'1514.8
2016-Jul-22 20:33N 51°07' E 001°20'4 4.3
2016-Jul-22 19:33N 51°06' E 001°26'1717.2
2016-Jul-22 18:33N 50°58' E 001°51'0 0.1
2016-Jul-22 17:33N 50°58' E 001°51'1414.4
2016-Jul-22 16:33N 51°02' E 001°29'8 7.6
2016-Jul-22 15:33N 51°07' E 001°20'9 9.3
2016-Jul-22 14:33N 51°04' E 001°33'1212.3
2016-Jul-22 13:33N 50°58' E 001°51'0 0.2
2016-Jul-22 12:33N 50°58' E 001°51'1717.3
2016-Jul-22 11:33N 51°04' E 001°25'4 4.2
2016-Jul-22 10:33N 51°07' E 001°20'1515.3
2016-Jul-22 09:33N 50°59' E 001°41'7 7.1
2016-Jul-22 08:33N 50°58' E 001°52'1312.9
2016-Jul-22 07:34N 51°01' E 001°32'10 3.2
2016-Jul-22 04:29N 51°07' E 001°20'6 6.2
2016-Jul-22 03:33N 51°06' E 001°29'1615.8
2016-Jul-22 02:33N 50°58' E 001°51'3 3.0
2016-Jul-22 01:33N 50°58' E 001°46'1916.7
2016-Jul-22 00:25N 51°07' E 001°20'4 4.4
2016-Jul-21 23:33N 51°07' E 001°26'1817.7
2016-Jul-21 22:34N 50°58' E 001°51'1 0.6
2016-Jul-21 21:33N 50°58' E 001°50'1717.3
2016-Jul-21 20:33N 51°06' E 001°25'4 3.5
2016-Jul-21 19:33N 51°07' E 001°20'1313.3
2016-Jul-21 18:33N 51°02' E 001°39'8 8.3
2016-Jul-21 17:34N 50°58' E 001°51'5 4.9
2016-Jul-21 16:33N 50°58' E 001°43'1714.1
2016-Jul-21 15:20N 51°07' E 001°20'0 0.0
2016-Jul-21 14:29N 51°07' E 001°20'1212.8
2016-Jul-21 13:33N 51°02' E 001°37'10 9.7
2016-Jul-21 12:33N 50°58' E 001°51'7 6.5
2016-Jul-21 11:33N 50°58' E 001°41'1614.9
2016-Jul-21 10:30N 51°07' E 001°20'0 0.1
2016-Jul-21 09:33N 51°07' E 001°20'1514.8
2016-Jul-21 08:33N 50°59' E 001°40'7 7.2
2016-Jul-21 07:33N 50°58' E 001°51'8 7.7
2016-Jul-21 06:33N 50°59' E 001°39'1514.4
2016-Jul-21 05:33N 51°07' E 001°20'0 0.0
2016-Jul-21 04:32N 51°07' E 001°20'8 8.2
2016-Jul-21 03:34N 51°06' E 001°33'1414.1
2016-Jul-21 02:33N 50°58' E 001°51'0 0.0
2016-Jul-21 01:33N 50°58' E 001°51'1717.1
2016-Jul-21 00:33N 51°04' E 001°25'5 4.9
2016-Jul-20 23:33N 51°07' E 001°20'1717.1
2016-Jul-20 22:33N 50°59' E 001°44'5 4.7
2016-Jul-20 21:33N 50°58' E 001°51'1413.8
2016-Jul-20 20:33N 51°03' E 001°30'8 6.3
2016-Jul-20 19:18N 51°07' E 001°20'1013.8
2016-Jul-20 18:33N 51°03' E 001°35'1111.3
2016-Jul-20 17:33N 50°58' E 001°51'5 4.5
2016-Jul-20 16:34N 50°58' E 001°44'1817.6
2016-Jul-20 15:33N 51°07' E 001°20'0 0.0
2016-Jul-20 14:32N 51°07' E 001°20'1413.9
2016-Jul-20 13:33N 51°01' E 001°39'8 7.7
2016-Jul-20 12:31N 50°58' E 001°51'5 5.4
2016-Jul-20 11:33N 50°58' E 001°43'1716.0
2016-Jul-20 10:30N 51°07' E 001°20'0 0.0
2016-Jul-20 09:23N 51°07' E 001°20'1214.5
2016-Jul-20 08:33N 51°02' E 001°37'10 9.7
2016-Jul-20 07:33N 50°58' E 001°51'7 6.6
2016-Jul-20 06:34N 50°59' E 001°41'1614.2
2016-Jul-20 05:28N 51°07' E 001°20'0 0.0
2016-Jul-20 04:23N 51°07' E 001°20'6 7.2
2016-Jul-20 03:34N 51°05' E 001°29'1615.6
2016-Jul-20 02:34N 50°58' E 001°51'0 0.1
2016-Jul-20 01:33N 50°58' E 001°51'1515.5
2016-Jul-20 00:33N 51°03' E 001°28'6 6.0
2016-Jul-19 23:30N 51°07' E 001°20'8 8.7
2016-Jul-19 22:34N 51°05' E 001°33'1313.4
2016-Jul-19 21:33N 50°58' E 001°51'2 2.3
2016-Jul-19 20:34N 50°58' E 001°47'1817.9
2016-Jul-19 19:33N 51°07' E 001°22'2 1.6
2016-Jul-19 18:32N 51°07' E 001°20'1616.6
2016-Jul-19 17:33N 50°59' E 001°43'5 5.5
2016-Jul-19 16:33N 50°58' E 001°51'1010.1
2016-Jul-19 15:33N 50°59' E 001°35'9 4.3
2016-Jul-19 13:33N 51°06' E 001°27'1716.8
2016-Jul-19 12:33N 50°58' E 001°51'0 0.1
2016-Jul-19 11:33N 50°58' E 001°51'1818.2
2016-Jul-19 10:33N 51°05' E 001°24'3 2.9
2016-Jul-19 09:26N 51°07' E 001°20'1112.6
2016-Jul-19 08:33N 51°02' E 001°35'1110.8
2016-Jul-19 07:33N 50°58' E 001°51'22 6.5
2016-Jul-19 04:14N 51°07' E 001°20'1014.2
2016-Jul-19 03:33N 51°03' E 001°34'1211.8
2016-Jul-19 02:33N 50°58' E 001°51'0 0.0
2016-Jul-19 01:33N 50°58' E 001°51'1010.1
2016-Jul-19 00:34N 51°01' E 001°35'12 8.3
2016-Jul-18 23:09N 51°07' E 001°20'712.2
2016-Jul-18 22:34N 51°06' E 001°31'1514.6
2016-Jul-18 21:33N 50°58' E 001°51'0 0.3
2016-Jul-18 20:33N 50°58' E 001°51'1515.5
2016-Jul-18 19:34N 51°03' E 001°27'6 5.8
2016-Jul-18 18:29N 51°07' E 001°20'1617.4
2016-Jul-18 17:34N 50°59' E 001°42'6 5.7
2016-Jul-18 16:33N 50°58' E 001°51'10 9.6
2016-Jul-18 15:33N 50°60' E 001°36'1312.2
2016-Jul-18 14:32N 51°07' E 001°20'5 5.7
2016-Jul-18 13:34N 51°06' E 001°29'1616.1
2016-Jul-18 12:33N 50°58' E 001°51'0 0.0
2016-Jul-18 11:33N 50°58' E 001°51'1818.2
2016-Jul-18 10:33N 51°06' E 001°25'4 3.5
2016-Jul-18 09:33N 51°07' E 001°20'1313.5
2016-Jul-18 08:33N 51°01' E 001°39'8 7.9
2016-Jul-18 07:31N 50°58' E 001°51'6 6.4
2016-Jul-18 06:33N 50°58' E 001°41'1616.0
2016-Jul-18 05:33N 51°07' E 001°20'0 0.3
2016-Jul-18 04:34N 51°07' E 001°20'6 6.0
2016-Jul-18 03:34N 51°05' E 001°29'1515.5
2016-Jul-18 02:34N 50°58' E 001°51'0 0.1
2016-Jul-18 01:33N 50°58' E 001°51'1514.7
2016-Jul-18 00:33N 51°02' E 001°29'7 6.9
2016-Jul-17 23:29N 51°07' E 001°20'8 9.1
2016-Jul-17 22:33N 51°04' E 001°32'1313.1
2016-Jul-17 21:33N 50°58' E 001°51'0 0.0
2016-Jul-17 20:32N 50°58' E 001°51'1616.1
2016-Jul-17 19:33N 51°04' E 001°28'6 5.0
2016-Jul-17 18:21N 51°07' E 001°20'1113.8
2016-Jul-17 17:34N 51°02' E 001°35'1110.7
2016-Jul-17 16:33N 50°58' E 001°51'6 5.8
2016-Jul-17 15:33N 50°58' E 001°42'1714.7
2016-Jul-17 14:26N 51°07' E 001°20'3 3.2
2016-Jul-17 13:33N 51°07' E 001°24'1818.2
2016-Jul-17 12:33N 50°58' E 001°50'1 0.8
2016-Jul-17 11:33N 50°58' E 001°51'1717.1
2016-Jul-17 10:34N 51°05' E 001°26'5 4.2
2016-Jul-17 09:29N 51°07' E 001°20'1313.9
2016-Jul-17 08:33N 51°01' E 001°38'9 8.6
2016-Jul-17 07:33N 50°58' E 001°51'8 8.1
2016-Jul-17 06:33N 50°59' E 001°38'14 6.8
2016-Jul-17 04:27N 51°07' E 001°20'5 5.3
2016-Jul-17 03:33N 51°06' E 001°27'1716.9
2016-Jul-17 02:33N 50°58' E 001°51'0 0.0
2016-Jul-17 01:33N 50°58' E 001°51'1010.0
2016-Jul-17 00:33N 50°60' E 001°35'12 8.4
2016-Jul-16 23:05N 51°07' E 001°20'712.8
2016-Jul-16 22:33N 51°04' E 001°30'1514.7
2016-Jul-16 21:33N 50°58' E 001°51'0 0.2
2016-Jul-16 20:33N 50°58' E 001°51'1716.7
2016-Jul-16 19:33N 51°05' E 001°26'5 4.8
2016-Jul-16 18:33N 51°07' E 001°20'1717.1
2016-Jul-16 17:33N 50°59' E 001°44'5 4.7
2016-Jul-16 16:34N 50°58' E 001°51'9 8.7
2016-Jul-16 15:34N 50°58' E 001°37'1413.0
2016-Jul-16 14:29N 51°07' E 001°20'3 3.5
2016-Jul-16 13:34N 51°07' E 001°25'1818.3
2016-Jul-16 12:33N 50°58' E 001°51'0 0.2
2016-Jul-16 11:33N 50°58' E 001°51'1615.9
2016-Jul-16 10:34N 51°04' E 001°28'6 5.3
2016-Jul-16 09:27N 51°07' E 001°20'1112.1
2016-Jul-16 08:34N 51°03' E 001°36'1110.5
2016-Jul-16 07:32N 50°58' E 001°51'4 3.9
2016-Jul-16 06:33N 50°58' E 001°45'18 9.1
2016-Jul-16 04:33N 51°07' E 001°20'8 8.2
2016-Jul-16 03:34N 51°05' E 001°33'1413.6
2016-Jul-16 02:34N 50°58' E 001°51'  
Track history (hours):
 
Tides and Currents Weather Stations Pressure Air Temp Water Temp Dewpoint Dewpoint Depression Visibility Wind Speed Wind Dir Waves Ship Positions

Pride Of Kent

Operator: P & O Ferries

Last reported at 2016-Jul-26 01:33 UTC. Time now 2016-Jul-26 02:36 UTC.
Position N 50°58' E 001°51'.

Length 180 m; draft 6 m.

Type: Passenger vessel. MMSI: 232009000.

Date/timePositionNaut miles runAvg speedWind from/ knotsBaromVisibWave heightAir tempDewpointWater temp
2016-Jul-26 01:33N 50°58' E 001°51'1313.1
2016-Jul-26 00:33N 51°01' E 001°31'9 9.1
2016-Jul-25 23:33N 51°07' E 001°20'6 6.3
2016-Jul-25 22:34N 51°05' E 001°29'1515.3
2016-Jul-25 21:33N 50°58' E 001°51'1 0.8
2016-Jul-25 20:34N 50°58' E 001°50'1616.5
2016-Jul-25 19:34N 51°04' E 001°26'5 4.4
2016-Jul-25 18:33N 51°07' E 001°20'1616.5
2016-Jul-25 17:33N 50°59' E 001°42'6 5.6
2016-Jul-25 16:33N 50°58' E 001°51'1313.1
2016-Jul-25 15:34N 51°03' E 001°32'9 7.8
2016-Jul-25 14:28N 51°07' E 001°20'7 7.2
2016-Jul-25 13:34N 51°05' E 001°30'1515.0
2016-Jul-25 12:33N 50°58' E 001°51'2 1.5
2016-Jul-25 11:33N 50°58' E 001°49'1817.9
2016-Jul-25 10:34N 51°06' E 001°23'2 2.1
2016-Jul-25 09:30N 51°07' E 001°20'1112.1
2016-Jul-25 08:33N 51°03' E 001°37'1010.1
2016-Jul-25 07:33N 50°58' E 001°51'7 6.6
2016-Jul-25 06:33N 50°58' E 001°41'16 7.3
2016-Jul-25 04:23N 51°07' E 001°20'1012.0
2016-Jul-25 03:34N 51°04' E 001°35'1210.9
2016-Jul-25 02:29N 50°58' E 001°51'0 0.0
2016-Jul-25 01:33N 50°58' E 001°51'1111.3
2016-Jul-25 00:33N 50°60' E 001°33'6 2.9
2016-Jul-24 22:33N 51°05' E 001°29'1615.7
2016-Jul-24 21:34N 50°58' E 001°51'2 2.0
2016-Jul-24 20:33N 50°58' E 001°48'1717.3
2016-Jul-24 19:33N 51°06' E 001°23'2 2.4
2016-Jul-24 18:33N 51°07' E 001°20'1717.3
2016-Jul-24 17:33N 50°59' E 001°44'5 4.6
2016-Jul-24 16:33N 50°58' E 001°51'1413.8
2016-Jul-24 15:33N 51°03' E 001°30'8 7.2
2016-Jul-24 14:28N 51°07' E 001°20'9 9.5
2016-Jul-24 13:34N 51°03' E 001°32'1312.8
2016-Jul-24 12:32N 50°58' E 001°51'2 2.0
2016-Jul-24 11:34N 50°58' E 001°48'1717.5
2016-Jul-24 10:33N 51°06' E 001°23'2 2.0
2016-Jul-24 09:28N 51°07' E 001°20'1516.3
2016-Jul-24 08:33N 50°59' E 001°40'7 7.1
2016-Jul-24 07:32N 50°58' E 001°51'1212.5
2016-Jul-24 06:33N 51°01' E 001°32'10 4.9
2016-Jul-24 04:32N 51°07' E 001°20'8 8.7
2016-Jul-24 03:33N 51°05' E 001°33'1313.2
2016-Jul-24 02:33N 50°58' E 001°51'2 1.9
2016-Jul-24 01:33N 50°58' E 001°48'1919.3
2016-Jul-24 00:33N 51°07' E 001°21'0 0.3
2016-Jul-23 23:34N 51°07' E 001°20'1918.5
2016-Jul-23 22:34N 50°58' E 001°46'3 3.3
2016-Jul-23 21:33N 50°58' E 001°51'1111.3
2016-Jul-23 20:33N 51°01' E 001°34'1110.1
2016-Jul-23 19:31N 51°07' E 001°20'7 7.5
2016-Jul-23 18:34N 51°05' E 001°31'1414.4
2016-Jul-23 17:33N 50°58' E 001°51'2 2.2
2016-Jul-23 16:33N 50°58' E 001°47'1918.5
2016-Jul-23 15:31N 51°07' E 001°20'0 0.1
2016-Jul-23 14:27N 51°07' E 001°20'1416.1
2016-Jul-23 13:33N 51°00' E 001°40'7 7.1
2016-Jul-23 12:33N 50°58' E 001°51'5 5.2
2016-Jul-23 11:33N 50°58' E 001°43'1714.7
2016-Jul-23 10:24N 51°07' E 001°20'0 0.0
2016-Jul-23 09:31N 51°07' E 001°20'1616.1
2016-Jul-23 08:33N 50°60' E 001°42'6 6.0
2016-Jul-23 07:32N 50°58' E 001°51'1010.4
2016-Jul-23 06:34N 50°60' E 001°35'8 3.8
2016-Jul-23 04:34N 51°06' E 001°29'1616.0
2016-Jul-23 03:33N 50°58' E 001°51'5 4.6
2016-Jul-23 02:34N 50°58' E 001°44'1817.7
2016-Jul-23 01:33N 51°07' E 001°20'0 0.0
2016-Jul-23 00:30N 51°07' E 001°20'1414.7
2016-Jul-22 23:33N 51°02' E 001°40'8 7.6
2016-Jul-22 22:34N 50°58' E 001°51'7 7.2
2016-Jul-22 21:34N 50°59' E 001°40'1514.8
2016-Jul-22 20:33N 51°07' E 001°20'4 4.3
2016-Jul-22 19:33N 51°06' E 001°26'1717.2
2016-Jul-22 18:33N 50°58' E 001°51'0 0.1
2016-Jul-22 17:33N 50°58' E 001°51'1414.4
2016-Jul-22 16:33N 51°02' E 001°29'8 7.6
2016-Jul-22 15:33N 51°07' E 001°20'9 9.3
2016-Jul-22 14:33N 51°04' E 001°33'1212.3
2016-Jul-22 13:33N 50°58' E 001°51'0 0.2
2016-Jul-22 12:33N 50°58' E 001°51'1717.3
2016-Jul-22 11:33N 51°04' E 001°25'4 4.2
2016-Jul-22 10:33N 51°07' E 001°20'1515.3
2016-Jul-22 09:33N 50°59' E 001°41'7 7.1
2016-Jul-22 08:33N 50°58' E 001°52'1312.9
2016-Jul-22 07:34N 51°01' E 001°32'10 3.2
2016-Jul-22 04:29N 51°07' E 001°20'6 6.2
2016-Jul-22 03:33N 51°06' E 001°29'1615.8
2016-Jul-22 02:33N 50°58' E 001°51'3 3.0
2016-Jul-22 01:33N 50°58' E 001°46'1916.7
2016-Jul-22 00:25N 51°07' E 001°20'4 4.4
2016-Jul-21 23:33N 51°07' E 001°26'1817.7
2016-Jul-21 22:34N 50°58' E 001°51'1 0.6
2016-Jul-21 21:33N 50°58' E 001°50'1717.3
2016-Jul-21 20:33N 51°06' E 001°25'4 3.5
2016-Jul-21 19:33N 51°07' E 001°20'1313.3
2016-Jul-21 18:33N 51°02' E 001°39'8 8.3
2016-Jul-21 17:34N 50°58' E 001°51'5 4.9
2016-Jul-21 16:33N 50°58' E 001°43'1714.1
2016-Jul-21 15:20N 51°07' E 001°20'0 0.0
2016-Jul-21 14:29N 51°07' E 001°20'1212.8
2016-Jul-21 13:33N 51°02' E 001°37'10 9.7
2016-Jul-21 12:33N 50°58' E 001°51'7 6.5
2016-Jul-21 11:33N 50°58' E 001°41'1614.9
2016-Jul-21 10:30N 51°07' E 001°20'0 0.1
2016-Jul-21 09:33N 51°07' E 001°20'1514.8
2016-Jul-21 08:33N 50°59' E 001°40'7 7.2
2016-Jul-21 07:33N 50°58' E 001°51'8 7.7
2016-Jul-21 06:33N 50°59' E 001°39'1514.4
2016-Jul-21 05:33N 51°07' E 001°20'0 0.0
2016-Jul-21 04:32N 51°07' E 001°20'8 8.2
2016-Jul-21 03:34N 51°06' E 001°33'1414.1
2016-Jul-21 02:33N 50°58' E 001°51'0 0.0
2016-Jul-21 01:33N 50°58' E 001°51'1717.1
2016-Jul-21 00:33N 51°04' E 001°25'5 4.9
2016-Jul-20 23:33N 51°07' E 001°20'1717.1
2016-Jul-20 22:33N 50°59' E 001°44'5 4.7
2016-Jul-20 21:33N 50°58' E 001°51'1413.8
2016-Jul-20 20:33N 51°03' E 001°30'8 6.3
2016-Jul-20 19:18N 51°07' E 001°20'1013.8
2016-Jul-20 18:33N 51°03' E 001°35'1111.3
2016-Jul-20 17:33N 50°58' E 001°51'5 4.5
2016-Jul-20 16:34N 50°58' E 001°44'1817.6
2016-Jul-20 15:33N 51°07' E 001°20'0 0.0
2016-Jul-20 14:32N 51°07' E 001°20'1413.9
2016-Jul-20 13:33N 51°01' E 001°39'8 7.7
2016-Jul-20 12:31N 50°58' E 001°51'5 5.4
2016-Jul-20 11:33N 50°58' E 001°43'1716.0
2016-Jul-20 10:30N 51°07' E 001°20'0 0.0
2016-Jul-20 09:23N 51°07' E 001°20'1214.5
2016-Jul-20 08:33N 51°02' E 001°37'10 9.7
2016-Jul-20 07:33N 50°58' E 001°51'7 6.6
2016-Jul-20 06:34N 50°59' E 001°41'1614.2
2016-Jul-20 05:28N 51°07' E 001°20'0 0.0
2016-Jul-20 04:23N 51°07' E 001°20'6 7.2
2016-Jul-20 03:34N 51°05' E 001°29'1615.6
2016-Jul-20 02:34N 50°58' E 001°51'0 0.1
2016-Jul-20 01:33N 50°58' E 001°51'1515.5
2016-Jul-20 00:33N 51°03' E 001°28'6 6.0
2016-Jul-19 23:30N 51°07' E 001°20'8 8.7
2016-Jul-19 22:34N 51°05' E 001°33'1313.4
2016-Jul-19 21:33N 50°58' E 001°51'2 2.3
2016-Jul-19 20:34N 50°58' E 001°47'1817.9
2016-Jul-19 19:33N 51°07' E 001°22'2 1.6
2016-Jul-19 18:32N 51°07' E 001°20'1616.6
2016-Jul-19 17:33N 50°59' E 001°43'5 5.5
2016-Jul-19 16:33N 50°58' E 001°51'1010.1
2016-Jul-19 15:33N 50°59' E 001°35'9 4.3
2016-Jul-19 13:33N 51°06' E 001°27'1716.8
2016-Jul-19 12:33N 50°58' E 001°51'0 0.1
2016-Jul-19 11:33N 50°58' E 001°51'1818.2
2016-Jul-19 10:33N 51°05' E 001°24'3 2.9
2016-Jul-19 09:26N 51°07' E 001°20'1112.6
2016-Jul-19 08:33N 51°02' E 001°35'1110.8
2016-Jul-19 07:33N 50°58' E 001°51'22 6.5
2016-Jul-19 04:14N 51°07' E 001°20'1014.2
2016-Jul-19 03:33N 51°03' E 001°34'1211.8
2016-Jul-19 02:33N 50°58' E 001°51'0 0.0
2016-Jul-19 01:33N 50°58' E 001°51'1010.1
2016-Jul-19 00:34N 51°01' E 001°35'12 8.3
2016-Jul-18 23:09N 51°07' E 001°20'712.2
2016-Jul-18 22:34N 51°06' E 001°31'1514.6
2016-Jul-18 21:33N 50°58' E 001°51'0 0.3
2016-Jul-18 20:33N 50°58' E 001°51'1515.5
2016-Jul-18 19:34N 51°03' E 001°27'6 5.8
2016-Jul-18 18:29N 51°07' E 001°20'1617.4
2016-Jul-18 17:34N 50°59' E 001°42'6 5.7
2016-Jul-18 16:33N 50°58' E 001°51'10 9.6
2016-Jul-18 15:33N 50°60' E 001°36'1312.2
2016-Jul-18 14:32N 51°07' E 001°20'5 5.7
2016-Jul-18 13:34N 51°06' E 001°29'1616.1
2016-Jul-18 12:33N 50°58' E 001°51'0 0.0
2016-Jul-18 11:33N 50°58' E 001°51'1818.2
2016-Jul-18 10:33N 51°06' E 001°25'4 3.5
2016-Jul-18 09:33N 51°07' E 001°20'1313.5
2016-Jul-18 08:33N 51°01' E 001°39'8 7.9
2016-Jul-18 07:31N 50°58' E 001°51'6 6.4
2016-Jul-18 06:33N 50°58' E 001°41'1616.0
2016-Jul-18 05:33N 51°07' E 001°20'0 0.3
2016-Jul-18 04:34N 51°07' E 001°20'6 6.0
2016-Jul-18 03:34N 51°05' E 001°29'1515.5
2016-Jul-18 02:34N 50°58' E 001°51'0 0.1
2016-Jul-18 01:33N 50°58' E 001°51'1514.7
2016-Jul-18 00:33N 51°02' E 001°29'7 6.9
2016-Jul-17 23:29N 51°07' E 001°20'8 9.1
2016-Jul-17 22:33N 51°04' E 001°32'1313.1
2016-Jul-17 21:33N 50°58' E 001°51'0 0.0
2016-Jul-17 20:32N 50°58' E 001°51'1616.1
2016-Jul-17 19:33N 51°04' E 001°28'6 5.0
2016-Jul-17 18:21N 51°07' E 001°20'1113.8
2016-Jul-17 17:34N 51°02' E 001°35'1110.7
2016-Jul-17 16:33N 50°58' E 001°51'6 5.8
2016-Jul-17 15:33N 50°58' E 001°42'1714.7
2016-Jul-17 14:26N 51°07' E 001°20'3 3.2
2016-Jul-17 13:33N 51°07' E 001°24'1818.2
2016-Jul-17 12:33N 50°58' E 001°50'1 0.8
2016-Jul-17 11:33N 50°58' E 001°51'1717.1
2016-Jul-17 10:34N 51°05' E 001°26'5 4.2
2016-Jul-17 09:29N 51°07' E 001°20'1313.9
2016-Jul-17 08:33N 51°01' E 001°38'9 8.6
2016-Jul-17 07:33N 50°58' E 001°51'8 8.1
2016-Jul-17 06:33N 50°59' E 001°38'14 6.8
2016-Jul-17 04:27N 51°07' E 001°20'5 5.3
2016-Jul-17 03:33N 51°06' E 001°27'1716.9
2016-Jul-17 02:33N 50°58' E 001°51'0 0.0
2016-Jul-17 01:33N 50°58' E 001°51'1010.0
2016-Jul-17 00:33N 50°60' E 001°35'12 8.4
2016-Jul-16 23:05N 51°07' E 001°20'712.8
2016-Jul-16 22:33N 51°04' E 001°30'1514.7
2016-Jul-16 21:33N 50°58' E 001°51'0 0.2
2016-Jul-16 20:33N 50°58' E 001°51'1716.7
2016-Jul-16 19:33N 51°05' E 001°26'5 4.8
2016-Jul-16 18:33N 51°07' E 001°20'1717.1
2016-Jul-16 17:33N 50°59' E 001°44'5 4.7
2016-Jul-16 16:34N 50°58' E 001°51'9 8.7
2016-Jul-16 15:34N 50°58' E 001°37'1413.0
2016-Jul-16 14:29N 51°07' E 001°20'3 3.5
2016-Jul-16 13:34N 51°07' E 001°25'1818.3
2016-Jul-16 12:33N 50°58' E 001°51'0 0.2
2016-Jul-16 11:33N 50°58' E 001°51'1615.9
2016-Jul-16 10:34N 51°04' E 001°28'6 5.3
2016-Jul-16 09:27N 51°07' E 001°20'1112.1
2016-Jul-16 08:34N 51°03' E 001°36'1110.5
2016-Jul-16 07:32N 50°58' E 001°51'4 3.9
2016-Jul-16 06:33N 50°58' E 001°45'18 9.1
2016-Jul-16 04:33N 51°07' E 001°20'8 8.2
2016-Jul-16 03:34N 51°05' E 001°33'1413.6
2016-Jul-16 02:34N 50°58' E 001°51'  

Dump ship's entire track history